Vidal Ramos, Brazil
Current Conditions -  °F | °C
As of 6:00 AM on Monday 24 Nov 2014 (Local Time) from SBFL Reporting Station
Broken Clouds Broken Clouds  
Wind Chill: 72°   Ceiling: 3000
Heat Index: 72°   Visibility: 6mi
Dew Point: 64°   Wind: 3mph
Humidity: 78%   Direction: 340°NNW
Pressure: 29.97"   Gusts: NA
Location:  27.38°S, 49.37°W
Report Text: SBFL 240800Z 34003KT 9999 SCT025 BKN030 22/18 Q1015
Loading
Personal Weather Stations






























Interactive Weather Map New forecast layout! Learn more

10-Day Weather Forecast

Advertisements
Track Severe Weather on mobile